Главная страница
METAR-TAF:

METAR-TAF

Аэропорты :

Брюссель, Бельгия

широта: 50-54N, долгота: 004-32E, высота над уровнем моря: 55 м

Текущие метеонаблюдения

Эта сводка был подготовлена 12 минут назад, в 07:20 UTC
Ветер 6 Узел от южный
Температура 20°C
Влажность 68%
Давление 1021 hPa
Видимость 10 км и более
Нет облачности ниже 1500 м, и нет кучево-дождевой облачности

METAR: EBBR 170720Z 18006KT CAVOK 20/14 Q1021 NOSIG

Время: 09:32 (07:32 UTC)

Прогноз

Эта сводка был подготовлена 2 часа и 12 минут назад, в 05:20 UTC
Прогноз действительный с 17-го 06 UTC до 18-го 12 UTC
Ветер 4 Узел от юго-юго-восточный
Видимость 10 км и более
Нет облачности ниже 1500 м, и нет кучево-дождевой облачности

TAF: EBBR 170520Z 1706/1812 16004KT CAVOK

Метеонаблюдения и прогнозы для более 4000 аэропортов (сводки METAR и TAF).

Имеющиеся станции представлены на карте желтыми и красными точками.

Чтобы увидеть название станции, наведите на нее мышь.

Затем щелкните, чтобы увидеть метеонаблюдения и метеопрогнозы.

Управление картой: чтобы увеличить масштаб, щелкните зеленые кнопки с черным крестиком; чтобы уменьшить масштаб, щелкните зеленую кнопку с тире; для просмотра соседних карт щелкайте зеленые стрелки.


METAR-TAF: